• Join FlightAware (Why Join?)
  • Login
  • US Flag 
12:03AM EDT


 

Airport Tracker/Info


-or-


 

Live Flight TrackerFlight Track Log ✈ EGF4269 ✈ 19-Apr-2013 ✈ KORD - KAZO

Flight Track Log - Related Links

Times and Time Zones

All times are in EDT time to prevent confusion due to time zone crossing. See the EGF4269 flight status page for this flight to view local times or setup timezone preferences in your user account.

Time Position Orientation Groundspeed Altitude Reporting Facility
EDT Latitude Longitude Course Direction KTS MPH feet Rate Location/Type
12:51AM 42.0000 -87.9333 83° East 168 193 2,300  Level Chicago TRACON
12:52AM 42.0500 -87.8667 45° Northeast 216 249 4,400 2,280 Climbing Chicago TRACON
12:55AM 42.0794 -87.6364 80° East 282 325 10,300 1,980 Climbing Chicago Center
12:56AM 42.0864 -87.5153 86° East 313 360 11,400 1,020 Climbing Chicago Center
12:57AM 42.0450 -87.4224 83° East  Level FlightAware Approximate
12:57AM 42.0942 -87.3783 86° East 353 406 12,400  Level Chicago Center
12:58AM 42.1022 -87.2317 86° East 387 445 13,300 840 Climbing Chicago Center
12:59AM 42.1086 -87.1053 86° East 346 398 14,200 840 Climbing Chicago Center
01:00AM 42.1336 -86.9928 73° East 315 362 15,000 360 Climbing Chicago Center
01:01AM 42.1650 -86.8725 71° East 333 383 15,000 -480 Level Chicago Center
01:02AM 42.1942 -86.7525 72° East 335 386 14,100 -1,500 Descending Chicago Center
01:03AM 42.2275 -86.6325 69° East 323 372 12,000 -1,920 Descending Chicago Center
01:04AM 42.2597 -86.5225 68° East 318 366 10,300 -1,440 Descending Chicago Center
01:05AM 42.2886 -86.4214 69° East 296 341 9,200 -1,200 Descending Chicago Center
01:06AM 42.3139 -86.3286 70° East 284 327 8,000 -1,200 Descending Chicago Center
01:07AM 42.3419 -86.2269 69° East 289 333 6,800 -1,260 Descending Chicago Center
01:08AM 42.3672 -86.1344 70° East 275 316 5,500 -1,260 Descending Chicago Center
01:09AM 42.3908 -86.0461 70° East 259 298 4,300 -780 Descending Chicago Center
01:10AM 42.4128 -85.9631 70° East 244 281 4,000 -600 Descending Chicago Center
01:11AM 42.4275 -85.8697 78° East 255 293 3,200 -480 Descending Chicago Center
01:12AM 42.4378 -85.7781 81° East 253 291 3,100 -60 Descending Chicago Center
01:13AM 42.4500 -85.6669 81° East 251 289 3,100 -60 Level Chicago Center
01:14AM 42.4344 -85.5961 107° East 233 268 3,000 -120 Descending Chicago Center
01:15AM 42.3800 -85.5806 168° South 207 238 2,900 -60 Descending Chicago Center
01:16AM 42.3331 -85.5703 171° South 176 203 2,900 -420 Level Chicago Center
01:17AM 42.2933 -85.5619 171° South 150 173 2,100 -720 Descending Chicago Center
01:18AM 42.2553 -85.5544 172° South 144 166 1,500 -600 Descending Chicago Center